首页
METAR-TAF:

METAR-TAF

机场 :

佛罗伦萨-佩雷托拉机场

佛罗伦萨, 意大利

纬度: 43-48N, 经度: 011-12E, 海拔: 40米

当前天气观测

该预报发布于15分钟前的07:20 UTC
风速6节,风向东转东南
温度 21°C
湿度 78%
气压 1016 hPa
能见度10公里或以上
少量云层高于8000英尺

METAR: LIRQ 150720Z 11006KT 9999 FEW080 21/17 Q1016

时间: 09:35 (07:35 UTC)

预报

该预报发布于2小时和35分钟前的05:00 UTC
预报有效从15日的 06点(UTC)到 16日的 06点(UTC)
风速6节,风向多变
能见度10公里或以上
多云层高于4000英尺
成为
从 15日的 06点(UTC)到 15日的 08点(UTC)
风速12节,风向南转南东
短暂存在
从 15日的 15点(UTC)到 15日的 21点(UTC)
雷暴, 雨

TAF: LIRQ 150500Z 1506/1606 VRB06KT 9999 BKN040 BECMG 1506/1508 16012KT TEMPO 1515/1521 TSRA

超过4000个机场的气象观测和天气预报(METAR&TAF报告)。

可查询的气象台以黄色和红色小点在地图上表示。

将鼠标移到小点上方,可查看气象台名称。

然后点击查看天气观测和预报。

如需切换地图:点击带黑十字的绿色按钮放大地图;点击带横线的绿色按钮缩小地图;或者点击绿色箭头查看邻近地区的地图。


METAR-TAF: